Time;durP1;ratioP1;P1;durP2;ratioP2;P2;SDS_P1;SDS_P2;PMS_P1;PMS_P2;Temp;Humidity;BMP_temperature;BMP_pressure;BME280_temperature;BME280_humidity;BME280_pressure;Samples;Min_cycle;Max_cycle;Signal;HPM_P1;HPM_P2
2022/01/18 00:01:50;;;;;;;10.35;2.83;;;;;;;0.17;58.11;101792.13;5064439;28;20074;-73
2022/01/18 00:04:16;;;;;;;5.43;1.60;;;;;;;0.11;58.01;101788.41;5063564;28;20541;-73
2022/01/18 00:06:46;;;;;;;6.88;2.50;;;;;;;0.15;57.85;101792.03;5046313;28;20091;-73
2022/01/18 00:09:12;;;;;;;14.23;2.38;;;;;;;0.24;57.86;101810.44;5064314;28;20051;-73
2022/01/18 00:11:46;;;;;;;11.55;1.90;;;;;;;0.27;57.77;101808.84;5064341;28;20017;-72
2022/01/18 00:14:22;;;;;;;10.32;2.15;;;;;;;0.27;57.76;101813.97;5046348;28;20052;-72
2022/01/18 00:17:04;;;;;;;7.20;1.63;;;;;;;0.28;57.85;101801.28;5064182;28;20051;-73
2022/01/18 00:19:29;;;;;;;13.18;2.13;;;;;;;0.30;57.66;101803.91;5046116;28;20100;-72
2022/01/18 00:24:26;;;;;;;10.80;2.20;;;;;;;0.17;57.88;101800.66;5064145;28;20029;-73
2022/01/18 00:26:52;;;;;;;7.70;1.85;;;;;;;0.26;57.75;101804.56;5045736;28;20124;-73
2022/01/18 00:29:20;;;;;;;9.95;2.05;;;;;;;0.26;57.92;101814.78;5063682;28;20264;-73
2022/01/18 00:31:58;;;;;;;13.93;2.15;;;;;;;0.26;57.86;101823.28;5063714;28;20020;-73
2022/01/18 00:34:30;;;;;;;10.25;2.15;;;;;;;0.11;58.01;101798.63;5063824;28;20061;-73
2022/01/18 00:39:34;;;;;;;16.17;2.55;;;;;;;0.24;57.94;101829.97;5063671;28;20616;-72
2022/01/18 00:41:59;;;;;;;19.08;2.45;;;;;;;0.25;58.03;101821.53;5063705;28;20025;-72
2022/01/18 00:44:25;;;;;;;8.63;2.05;;;;;;;0.25;58.13;101826.66;5045272;28;20021;-72
2022/01/18 00:46:51;;;;;;;4.80;1.88;;;;;;;0.28;58.18;101833.59;5063416;28;20031;-72
2022/01/18 00:49:17;;;;;;;10.57;2.08;;;;;;;0.28;58.18;101828.47;5063358;28;20052;-70
2022/01/18 00:51:49;;;;;;;13.85;2.75;;;;;;;0.29;58.09;101832.81;5063399;28;20028;-72
2022/01/18 00:54:20;;;;;;;10.85;2.45;;;;;;;0.31;57.98;101833.78;5063501;28;20054;-73
2022/01/18 00:56:47;;;;;;;11.13;2.53;;;;;;;0.32;58.00;101821.09;5045237;28;20029;-72
2022/01/18 00:59:13;;;;;;;12.18;2.15;;;;;;;0.32;58.05;101831.31;5045180;28;20102;-73
2022/01/18 01:01:38;;;;;;;12.68;2.47;;;;;;;0.32;58.26;101831.31;5063192;28;20033;-73
2022/01/18 01:04:05;;;;;;;9.20;2.17;;;;;;;0.35;58.01;101830.63;5063197;28;20135;-73
2022/01/18 01:06:32;;;;;;;7.97;2.70;;;;;;;0.23;57.97;101815.47;5063346;28;20029;-73
2022/01/18 01:08:57;;;;;;;10.25;2.72;;;;;;;0.34;58.08;101839.06;5063340;28;20025;-73
2022/01/18 01:11:24;;;;;;;9.00;2.28;;;;;;;0.35;58.11;101841.69;5063422;28;20371;-73
2022/01/18 01:13:51;;;;;;;16.38;2.60;;;;;;;0.35;58.12;101834.03;5063445;28;20106;-73
2022/01/18 01:33:05;;;;;;;8.38;2.20;;;;;;;0.17;58.23;101822.78;5062926;28;20036;-74
2022/01/18 01:43:23;;;;;;;9.27;2.00;;;;;;;0.34;58.33;101844.16;5063179;28;20060;-72
2022/01/18 01:45:51;;;;;;;8.60;2.28;;;;;;;0.35;58.38;101848.50;5063035;28;20017;-72
2022/01/18 01:48:18;;;;;;;12.68;2.60;;;;;;;0.34;58.40;101842.50;5062699;28;20072;-72
2022/01/18 01:50:54;;;;;;;13.55;2.13;;;;;;;0.28;58.32;101836.16;5062930;28;20021;-72
2022/01/18 01:53:22;;;;;;;9.30;2.40;;;;;;;0.26;58.57;101832.66;5062589;28;20035;-72
2022/01/18 01:55:49;;;;;;;15.88;3.33;;;;;;;0.28;58.79;101825.94;5063162;28;20079;-73
2022/01/18 01:58:15;;;;;;;10.75;2.20;;;;;;;0.34;58.87;101823.72;5062751;28;20174;-73
2022/01/18 02:00:44;;;;;;;9.65;1.95;;;;;;;0.41;58.78;101825.84;5062902;28;20088;-72
2022/01/18 02:03:10;;;;;;;11.52;2.47;;;;;;;0.49;58.80;101832.28;5044693;28;20040;-73
2022/01/18 02:05:35;;;;;;;13.98;2.65;;;;;;;0.53;58.56;101835.00;5044727;28;20382;-73
2022/01/18 02:08:00;;;;;;;15.48;2.50;;;;;;;0.53;58.46;101827.34;5044543;28;20017;-73
2022/01/18 02:10:26;;;;;;;12.25;2.67;;;;;;;0.51;58.44;101821.25;5062958;28;20029;-73
2022/01/18 02:12:51;;;;;;;10.25;2.80;;;;;;;0.41;58.45;101802.84;5062616;28;20024;-73
2022/01/18 02:15:19;;;;;;;11.30;2.95;;;;;;;0.49;58.55;101810.94;5044695;28;20021;-73
2022/01/18 02:23:22;;;;;;;11.57;2.33;;;;;;;0.32;58.49;101812.56;5062765;28;20032;-73
2022/01/18 02:25:47;;;;;;;15.48;2.28;;;;;;;0.35;58.65;101813.59;5062645;28;20025;-73
2022/01/18 02:28:14;;;;;;;14.13;2.47;;;;;;;0.32;58.45;101818.53;5065215;28;20036;-73
2022/01/18 02:30:39;;;;;;;9.85;3.83;;;;;;;0.31;58.77;101821.88;5066502;28;20025;-73
2022/01/18 02:33:05;;;;;;;17.75;2.53;;;;;;;0.34;59.06;101819.50;5066128;28;20120;-73
2022/01/18 02:35:32;;;;;;;7.93;2.28;;;;;;;0.40;59.05;101816.41;5066110;28;20055;-73
2022/01/18 02:37:57;;;;;;;8.73;2.78;;;;;;;0.33;58.98;101802.44;5066031;28;20025;-73
2022/01/18 02:40:23;;;;;;;12.05;2.33;;;;;;;0.44;59.00;101820.03;5066153;28;20036;-74
2022/01/18 02:42:57;;;;;;;10.77;3.58;;;;;;;0.43;58.97;101818.28;5066202;28;20036;-73
2022/01/18 02:45:23;;;;;;;8.93;2.38;;;;;;;0.41;58.88;101813.06;5048025;28;20033;-73
2022/01/18 02:47:50;;;;;;;7.38;1.63;;;;;;;0.42;58.97;101819.03;5065648;28;20113;-73
2022/01/18 02:50:15;;;;;;;7.82;2.28;;;;;;;0.41;59.08;101824.97;5066090;28;20021;-73
2022/01/18 02:52:40;;;;;;;9.75;2.03;;;;;;;0.40;59.27;101824.06;5065952;28;20025;-73
2022/01/18 02:55:06;;;;;;;8.60;2.10;;;;;;;0.43;59.47;101829.34;5065746;28;20059;-73
2022/01/18 02:57:40;;;;;;;11.60;2.40;;;;;;;0.51;59.50;101832.38;5065802;28;20356;-73
2022/01/18 03:00:17;;;;;;;8.57;2.45;;;;;;;0.59;59.60;101833.66;5065926;28;20103;-73
2022/01/18 03:05:27;;;;;;;8.45;2.97;;;;;;;0.72;59.52;101839.44;5066072;28;20048;-73
2022/01/18 03:07:53;;;;;;;9.35;2.40;;;;;;;0.70;59.56;101841.91;5065405;28;20052;-73
2022/01/18 03:10:18;;;;;;;10.10;2.53;;;;;;;0.80;59.59;101848.41;5065728;28;20462;-73
2022/01/18 03:12:46;;;;;;;11.02;2.75;;;;;;;0.78;59.55;101834.69;5065479;28;20036;-73
2022/01/18 03:15:12;;;;;;;7.55;2.33;;;;;;;0.84;59.88;101841.81;5065521;28;20072;-73
2022/01/18 03:17:37;;;;;;;14.05;2.47;;;;;;;0.83;60.26;101838.34;5065245;28;20025;-73
2022/01/18 03:20:05;;;;;;;14.05;2.17;;;;;;;0.83;60.50;101840.06;5065385;28;20075;-72
2022/01/18 03:22:31;;;;;;;16.17;2.78;;;;;;;0.85;60.66;101864.00;5065320;28;20029;-72
2022/01/18 03:25:03;;;;;;;8.55;2.88;;;;;;;0.88;60.75;101865.88;5047445;28;20056;-72
2022/01/18 03:30:13;;;;;;;8.88;2.10;;;;;;;0.93;60.63;101892.56;5065422;28;19982;-73
2022/01/18 03:32:39;;;;;;;10.43;2.92;;;;;;;0.91;60.97;101886.50;5064978;28;20435;-72
2022/01/18 03:35:07;;;;;;;9.32;2.70;;;;;;;0.95;61.03;101889.31;5065154;28;20071;-73
2022/01/18 03:37:32;;;;;;;14.68;2.20;;;;;;;0.95;60.63;101880.75;5064677;28;20041;-72
2022/01/18 03:39:58;;;;;;;10.82;2.22;;;;;;;0.80;60.76;101870.56;5047203;28;20051;-72
2022/01/18 03:44:49;;;;;;;7.18;2.45;;;;;;;0.83;60.84;101888.63;5065156;28;20021;-71
2022/01/18 03:47:16;;;;;;;19.10;2.45;;;;;;;0.80;61.09;101896.13;5064528;28;20075;-72
2022/01/18 03:49:42;;;;;;;5.95;1.73;;;;;;;0.85;61.22;101892.13;5064665;28;20072;-71
2022/01/18 03:52:07;;;;;;;9.60;2.33;;;;;;;0.80;61.22;101878.25;5046681;28;20024;-72
2022/01/18 03:54:41;;;;;;;11.75;2.40;;;;;;;0.85;61.24;101893.03;5064815;28;20029;-72
2022/01/18 03:57:07;;;;;;;13.48;2.40;;;;;;;0.74;61.47;101865.97;5046601;28;20017;-71
2022/01/18 03:59:33;;;;;;;10.00;1.75;;;;;;;0.83;61.70;101875.84;5064631;28;20032;-73
2022/01/18 04:01:58;;;;;;;8.60;2.20;;;;;;;0.86;61.68;101864.09;5064426;28;20314;-72
2022/01/18 04:04:24;;;;;;;9.93;2.42;;;;;;;0.91;61.90;101874.56;5064536;28;20039;-72
2022/01/18 04:06:49;;;;;;;5.63;1.90;;;;;;;0.97;61.86;101880.06;5064419;28;20021;-72
2022/01/18 04:09:16;;;;;;;6.80;2.03;;;;;;;0.98;61.69;101884.38;5064385;28;20068;-72
2022/01/18 04:11:41;;;;;;;16.90;3.35;;;;;;;0.90;61.18;101877.94;5046265;28;20024;-73
2022/01/18 04:14:06;;;;;;;5.85;2.33;;;;;;;0.78;60.94;101880.72;5064219;28;20032;-72
2022/01/18 04:16:41;;;;;;;8.93;2.17;;;;;;;0.56;60.79;101886.28;5064381;28;20044;-72
2022/01/18 04:27:24;;;;;;;10.40;2.90;;;;;;;0.05;62.65;101902.13;4982612;28;20053;-72
2022/01/18 04:29:50;;;;;;;7.97;2.70;;;;;;;0.06;63.06;101886.00;4982170;28;20035;-72
2022/01/18 04:32:15;;;;;;;11.00;2.67;;;;;;;0.06;63.33;101880.91;4982360;28;20548;-72
2022/01/18 04:34:40;;;;;;;9.98;2.63;;;;;;;0.06;63.50;101886.91;4982523;28;20118;-72
2022/01/18 04:37:06;;;;;;;14.38;2.30;;;;;;;0.09;63.78;101875.97;4982484;28;20058;-72
2022/01/18 04:39:39;;;;;;;6.30;2.03;;;;;;;0.14;63.96;101866.00;4982264;28;20038;-72
2022/01/18 04:42:13;;;;;;;11.50;1.88;;;;;;;0.23;64.52;101871.66;4982223;28;20058;-72
2022/01/18 04:50:07;;;;;;;13.93;3.30;;;;;;;0.54;65.44;101858.09;4981907;28;20041;-71
2022/01/18 04:52:32;;;;;;;11.50;2.13;;;;;;;0.65;65.51;101860.34;4982083;28;20130;-71
2022/01/18 04:55:00;;;;;;;8.88;1.70;;;;;;;0.74;65.52;101864.31;4982326;28;20030;-72
2022/01/18 05:00:10;;;;;;;11.60;3.35;;;;;;;0.71;65.33;101864.13;5064135;28;20036;-70
2022/01/18 05:02:36;;;;;;;10.30;2.30;;;;;;;0.80;65.31;101873.13;5063649;28;20018;-71
2022/01/18 05:05:01;;;;;;;12.30;2.17;;;;;;;0.74;65.34;101861.75;5063944;28;20385;-70
2022/01/18 05:07:27;;;;;;;7.28;2.10;;;;;;;0.83;65.78;101852.84;5045423;28;20032;-70
2022/01/18 05:09:53;;;;;;;10.35;2.13;;;;;;;0.96;66.13;101860.38;5063269;28;20049;-70
2022/01/18 05:12:30;;;;;;;6.50;1.88;;;;;;;1.09;66.68;101858.47;5063318;28;20031;-71
2022/01/18 05:14:56;;;;;;;12.05;3.13;;;;;;;1.13;66.68;101856.97;5063281;28;20485;-71
2022/01/18 05:20:37;;;;;;;17.38;2.60;;;;;;;1.11;65.81;101857.78;5062997;28;20025;-70
2022/01/18 05:23:01;;;;;;;12.25;2.10;;;;;;;0.93;65.71;101844.84;5062981;28;20021;-71
2022/01/18 05:25:28;;;;;;;12.50;3.47;;;;;;;0.61;65.65;101828.63;5063313;28;20025;-71
2022/01/18 05:27:54;;;;;;;9.52;2.65;;;;;;;0.46;66.13;101826.09;5044771;28;20025;-70
2022/01/18 05:30:19;;;;;;;16.50;2.47;;;;;;;0.41;66.31;101830.06;5063182;28;20441;-69
2022/01/18 05:32:45;;;;;;;12.30;2.63;;;;;;;0.33;67.10;101820.31;5062827;28;20050;-70
2022/01/18 05:35:10;;;;;;;5.15;2.13;;;;;;;0.44;67.20;101833.69;5062954;28;20056;-71
2022/01/18 05:37:35;;;;;;;17.48;3.00;;;;;;;0.48;67.03;101833.06;5062970;28;20021;-71
2022/01/18 05:40:01;;;;;;;9.55;2.65;;;;;;;0.47;66.80;101845.75;5062894;28;20052;-70
2022/01/18 05:42:26;;;;;;;13.07;2.70;;;;;;;0.34;66.63;101841.59;5062748;28;20183;-70
2022/01/18 05:44:51;;;;;;;10.32;2.60;;;;;;;0.29;66.61;101848.16;5063117;28;20295;-71
2022/01/18 05:47:17;;;;;;;10.55;2.35;;;;;;;0.14;67.11;101851.59;5063134;28;20043;-71
2022/01/18 05:49:42;;;;;;;6.25;2.55;;;;;;;0.04;67.82;101859.47;5062895;28;20025;-68
2022/01/18 05:52:07;;;;;;;13.63;2.50;;;;;;;-0.14;68.14;101863.59;5044891;28;20040;-72
2022/01/18 05:54:33;;;;;;;7.68;3.17;;;;;;;-0.27;68.48;101862.00;5062927;28;20036;-72
2022/01/18 05:56:58;;;;;;;6.88;1.80;;;;;;;-0.41;68.62;101856.06;5062820;28;20366;-69
2022/01/18 05:59:33;;;;;;;15.43;3.10;;;;;;;-0.53;69.00;101858.75;5062780;28;20057;-72
2022/01/18 06:02:02;;;;;;;10.15;2.13;;;;;;;-0.69;69.26;101858.59;5063534;28;20504;-70
2022/01/18 06:07:12;;;;;;;11.52;3.10;;;;;;;-0.81;70.16;101866.38;5066862;28;20035;-71
2022/01/18 06:09:38;;;;;;;6.47;1.92;;;;;;;-0.89;70.75;101869.34;5066531;28;20024;-70
2022/01/18 06:12:03;;;;;;;10.75;2.60;;;;;;;-0.98;71.01;101855.13;5048536;28;20025;-73
2022/01/18 06:14:29;;;;;;;17.20;3.15;;;;;;;-0.89;71.06;101868.44;5067015;28;20102;-73
2022/01/18 06:16:54;;;;;;;8.65;2.35;;;;;;;-0.90;71.65;101852.28;5066568;28;20112;-76
2022/01/18 06:19:19;;;;;;;6.03;2.13;;;;;;;-0.70;71.94;101859.41;5048171;28;20040;-75
2022/01/18 06:21:45;;;;;;;16.17;2.97;;;;;;;-0.54;72.54;101857.00;5066593;28;20029;-77
2022/01/18 06:24:11;;;;;;;7.88;2.00;;;;;;;-0.41;72.66;101863.72;5066457;28;20509;-76
2022/01/18 06:26:37;;;;;;;13.52;2.25;;;;;;;-0.32;72.90;101839.53;5066268;28;20021;-75
2022/01/18 06:29:03;;;;;;;15.20;3.40;;;;;;;-0.26;72.90;101832.25;5066400;28;20082;-77
2022/01/18 06:31:30;;;;;;;10.55;3.47;;;;;;;-0.10;73.07;101836.59;5066314;28;20029;-76
2022/01/18 06:33:55;;;;;;;11.10;2.25;;;;;;;0.03;73.28;101833.09;5065879;28;20489;-75
2022/01/18 06:36:20;;;;;;;6.22;2.78;;;;;;;0.16;74.51;101821.88;5047524;28;20059;-75
2022/01/18 06:38:46;;;;;;;14.27;2.83;;;;;;;0.35;75.24;101828.06;5065902;28;20021;-76
2022/01/18 06:41:11;;;;;;;20.75;3.92;;;;;;;0.57;76.19;101852.25;5066064;28;20028;-76
2022/01/18 06:43:37;;;;;;;15.85;2.75;;;;;;;0.68;78.03;101850.31;5066112;28;20392;-74
2022/01/18 06:46:02;;;;;;;12.27;3.38;;;;;;;0.79;79.42;101846.66;5065977;28;20088;-73
2022/01/18 06:48:28;;;;;;;13.95;2.83;;;;;;;0.88;79.82;101845.41;5065630;28;20084;-76
2022/01/18 06:50:53;;;;;;;17.75;3.25;;;;;;;0.98;80.22;101838.31;5048008;28;20024;-76
2022/01/18 06:53:18;;;;;;;15.52;3.42;;;;;;;1.08;80.23;101838.81;5066138;28;20072;-76
2022/01/18 06:55:45;;;;;;;18.48;3.53;;;;;;;1.13;80.26;101837.41;5065629;28;20036;-76
2022/01/18 06:58:10;;;;;;;20.15;3.13;;;;;;;1.15;80.02;101835.78;5047739;28;20041;-76
2022/01/18 07:00:35;;;;;;;14.65;3.15;;;;;;;1.13;79.63;101836.50;5065558;28;20032;-77
2022/01/18 07:03:01;;;;;;;19.17;4.22;;;;;;;1.20;79.32;101836.03;5065445;28;20040;-77
2022/01/18 07:05:26;;;;;;;12.45;3.80;;;;;;;1.08;78.83;101819.25;5065509;28;20048;-77
2022/01/18 07:07:51;;;;;;;18.63;3.90;;;;;;;1.13;78.64;101837.41;5065435;28;20074;-77
2022/01/18 07:10:17;;;;;;;11.15;3.05;;;;;;;1.09;78.35;101835.44;5046972;28;20465;-76
2022/01/18 07:12:42;;;;;;;12.70;3.10;;;;;;;0.99;78.18;101829.84;5046555;28;20025;-77
2022/01/18 07:15:08;;;;;;;17.73;4.35;;;;;;;0.98;78.35;101828.09;5046890;28;20020;-77
2022/01/18 07:17:35;;;;;;;17.55;4.30;;;;;;;0.94;78.30;101821.03;5064933;28;20024;-76
2022/01/18 07:20:03;;;;;;;19.05;3.85;;;;;;;0.94;78.65;101815.91;5047157;28;20017;-77
2022/01/18 07:22:28;;;;;;;24.38;4.18;;;;;;;0.87;78.81;101795.94;5065043;28;20236;-76
2022/01/18 07:24:57;;;;;;;24.83;4.80;;;;;;;1.02;79.19;101813.81;5064963;28;20508;-76
2022/01/18 07:27:23;;;;;;;11.70;3.13;;;;;;;1.12;79.46;101820.28;5064948;28;20032;-76
2022/01/18 07:29:48;;;;;;;19.00;4.43;;;;;;;1.05;79.31;101800.28;5065000;28;20025;-76
2022/01/18 07:32:14;;;;;;;19.50;3.75;;;;;;;1.19;79.25;101807.03;5065219;28;20396;-76
2022/01/18 07:34:48;;;;;;;17.67;3.50;;;;;;;1.13;79.42;101795.56;5064853;28;20505;-76
2022/01/18 07:37:13;;;;;;;21.80;3.28;;;;;;;1.28;79.48;101816.00;5065219;28;20028;-74
2022/01/18 07:39:39;;;;;;;23.90;6.13;;;;;;;1.20;79.22;101801.09;5064912;28;20419;-74
2022/01/18 07:42:05;;;;;;;20.83;4.45;;;;;;;1.24;78.94;101807.25;5065054;28;20366;-76
2022/01/18 07:44:30;;;;;;;23.80;5.32;;;;;;;1.13;78.33;101810.94;5065397;28;20113;-76
2022/01/18 07:46:56;;;;;;;17.40;4.00;;;;;;;1.01;78.06;101813.72;5064937;28;20492;-74
2022/01/18 07:49:21;;;;;;;12.90;3.80;;;;;;;0.83;78.30;101811.94;5064588;28;20377;-75
2022/01/18 07:51:46;;;;;;;20.95;3.67;;;;;;;0.64;78.60;101805.78;5065067;28;20044;-77
2022/01/18 07:54:12;;;;;;;13.43;3.83;;;;;;;0.59;78.76;101809.78;5047090;28;20025;-77
2022/01/18 07:56:41;;;;;;;20.95;5.03;;;;;;;0.39;78.94;101796.75;5064961;28;20079;-77
2022/01/18 07:59:07;;;;;;;13.88;4.22;;;;;;;0.41;79.16;101810.50;5064808;28;20096;-76
2022/01/18 08:01:32;;;;;;;16.83;3.83;;;;;;;0.38;79.44;101818.00;5046823;28;20041;-76
2022/01/18 08:03:58;;;;;;;17.63;4.35;;;;;;;0.43;79.49;101820.81;5064452;28;20017;-76
2022/01/18 08:06:26;;;;;;;19.77;3.83;;;;;;;0.44;79.59;101812.34;5046570;28;20032;-76
2022/01/18 08:08:52;;;;;;;13.88;5.03;;;;;;;0.44;79.73;101818.34;5046279;28;20047;-75
2022/01/18 08:11:17;;;;;;;14.15;3.85;;;;;;;0.52;80.07;101823.88;5046644;28;20465;-77
2022/01/18 08:13:47;;;;;;;19.60;5.22;;;;;;;0.62;80.30;101820.19;5064637;28;20025;-76
2022/01/18 08:18:57;;;;;;;17.77;4.10;;;;;;;0.99;81.47;101824.72;5064354;28;20088;-77
2022/01/18 08:21:23;;;;;;;15.65;3.83;;;;;;;1.23;81.56;101824.28;5064201;28;20492;-77
2022/01/18 08:23:49;;;;;;;20.77;4.00;;;;;;;1.37;81.24;101808.78;5045239;28;20025;-78
2022/01/18 08:26:15;;;;;;;23.90;4.20;;;;;;;1.52;81.70;101806.13;5062663;28;20487;-77
2022/01/18 08:28:40;;;;;;;14.98;3.85;;;;;;;1.72;81.12;101808.84;5063250;28;20084;-78
2022/01/18 08:31:06;;;;;;;21.80;3.88;;;;;;;1.82;81.20;101810.19;5063720;28;20033;-74
2022/01/18 08:33:32;;;;;;;20.10;5.20;;;;;;;1.85;81.09;101797.53;5063356;28;20025;-77
2022/01/18 08:35:59;;;;;;;28.17;4.32;;;;;;;1.96;80.98;101803.19;5045817;28;20071;-77
2022/01/18 08:38:26;;;;;;;23.80;5.18;;;;;;;2.07;80.80;101807.19;5063477;28;20036;-76
2022/01/18 08:40:51;;;;;;;27.73;4.53;;;;;;;2.10;80.59;101791.94;5045778;28;20082;-77
2022/01/18 08:43:17;;;;;;;23.38;5.45;;;;;;;2.29;80.73;101815.00;5046122;28;20059;-77
2022/01/18 08:45:42;;;;;;;24.92;5.18;;;;;;;2.34;80.62;101818.69;5063980;28;20025;-77
2022/01/18 08:48:08;;;;;;;18.00;4.75;;;;;;;2.25;80.49;101802.88;5063505;28;20418;-76
2022/01/18 08:50:33;;;;;;;22.77;5.70;;;;;;;2.26;80.51;101794.38;5063810;28;20025;-76
2022/01/18 08:52:59;;;;;;;37.45;5.72;;;;;;;2.37;80.75;101808.56;5063913;28;20036;-75
2022/01/18 08:55:24;;;;;;;14.02;4.90;;;;;;;2.26;80.73;101781.56;5064173;28;20021;-76
2022/01/18 08:57:50;;;;;;;22.42;5.40;;;;;;;2.38;80.87;101807.75;5063648;28;20470;-72
2022/01/18 09:00:17;;;;;;;20.95;4.78;;;;;;;2.44;80.78;101802.06;5063309;28;20025;-71
2022/01/18 09:02:42;;;;;;;31.65;4.45;;;;;;;2.38;80.55;101782.13;5045041;28;20024;-71
2022/01/18 09:05:09;;;;;;;21.48;5.10;;;;;;;2.45;80.52;101799.56;5045351;28;20031;-72
2022/01/18 09:07:37;;;;;;;27.52;5.18;;;;;;;2.36;80.34;101786.31;5063264;28;20029;-72
2022/01/18 09:10:07;;;;;;;17.05;4.68;;;;;;;2.32;80.49;101797.22;5063501;28;20024;-72
2022/01/18 09:12:35;;;;;;;15.77;4.70;;;;;;;2.33;80.58;101804.13;5063478;28;20033;-72
2022/01/18 09:15:01;;;;;;;32.13;5.95;;;;;;;2.35;80.54;101811.06;5063461;28;20017;-72
2022/01/18 09:17:30;;;;;;;25.35;5.80;;;;;;;2.37;80.46;101800.88;5061642;28;20111;-72
2022/01/18 09:19:56;;;;;;;33.13;6.40;;;;;;;2.34;80.98;101780.25;5045654;28;20111;-72
2022/01/18 09:22:22;;;;;;;24.98;5.43;;;;;;;2.48;81.02;101804.84;5062971;28;20029;-72
2022/01/18 09:24:47;;;;;;;20.00;5.43;;;;;;;2.52;81.03;101807.56;5063192;28;20063;-72
2022/01/18 09:27:13;;;;;;;21.10;5.28;;;;;;;2.60;81.23;101803.69;5045354;28;20028;-71
2022/01/18 09:29:40;;;;;;;19.42;6.07;;;;;;;2.70;81.61;101799.88;5045238;28;20079;-72
2022/01/18 09:32:06;;;;;;;28.60;6.65;;;;;;;2.62;82.38;101775.53;5063205;28;20048;-72
2022/01/18 09:34:32;;;;;;;25.52;5.32;;;;;;;2.86;82.70;101806.56;5062873;28;20091;-72
2022/01/18 09:36:58;;;;;;;35.20;5.57;;;;;;;3.00;83.04;101798.63;5044830;28;20084;-72
2022/01/18 09:39:25;;;;;;;30.30;5.45;;;;;;;3.12;82.93;101804.31;5044978;28;20028;-72
2022/01/18 09:41:53;;;;;;;19.65;5.43;;;;;;;3.23;82.71;101802.22;5062798;28;20021;-72
2022/01/18 09:44:19;;;;;;;21.63;6.03;;;;;;;3.35;82.30;101805.31;5063020;28;20029;-72
2022/01/18 09:46:47;;;;;;;30.38;5.45;;;;;;;3.39;82.07;101801.22;5062779;28;20044;-71
2022/01/18 09:49:13;;;;;;;23.63;6.97;;;;;;;3.30;82.16;101782.84;5044593;28;20021;-72
2022/01/18 09:51:41;;;;;;;22.25;5.97;;;;;;;3.41;81.84;101793.56;5062990;28;20055;-72
2022/01/18 09:54:06;;;;;;;21.92;6.25;;;;;;;3.54;81.81;101803.59;5044570;28;20025;-72
2022/01/18 09:56:31;;;;;;;41.65;7.38;;;;;;;3.58;81.87;101809.72;5062441;28;20025;-72
2022/01/18 09:58:57;;;;;;;16.40;4.55;;;;;;;3.63;82.25;101808.22;5044492;28;20089;-72
2022/01/18 10:01:22;;;;;;;26.38;5.60;;;;;;;3.64;82.93;101797.16;5062402;28;20107;-73
2022/01/18 10:03:48;;;;;;;25.95;6.32;;;;;;;3.79;83.50;101814.00;5062523;28;20021;-73
2022/01/18 10:06:17;;;;;;;27.80;7.90;;;;;;;3.77;83.56;101792.53;5062784;28;20041;-73
2022/01/18 10:08:48;;;;;;;29.15;6.25;;;;;;;3.94;84.31;101800.94;5062562;28;20028;-73
2022/01/18 10:11:17;;;;;;;22.65;5.18;;;;;;;4.03;84.58;101810.72;5062675;28;20025;-73
2022/01/18 10:13:49;;;;;;;24.92;4.80;;;;;;;4.04;84.68;101792.78;5062842;28;20032;-72
2022/01/18 10:16:21;;;;;;;15.93;4.25;;;;;;;4.24;85.20;101815.88;5062909;28;20052;-72
2022/01/18 10:18:49;;;;;;;;;;;;;;;4.37;86.05;101817.25;5062997;28;20024;-72
2022/01/18 10:21:25;;;;;;;22.38;4.07;;;;;;;4.41;86.00;101811.41;5063009;28;19915;-73
2022/01/18 10:23:54;;;;;;;16.55;3.70;;;;;;;4.48;86.11;101794.53;5063099;28;20021;-72
2022/01/18 10:26:25;;;;;;;19.65;3.75;;;;;;;4.54;86.19;101788.72;5062777;28;20052;-72
2022/01/18 10:29:10;;;;;;;16.88;3.00;;;;;;;4.75;86.48;101803.22;5062456;28;20092;-73
2022/01/18 10:31:45;;;;;;;28.10;3.20;;;;;;;4.83;85.60;101796.69;5062762;28;20029;-73
2022/01/18 10:37:08;;;;;;;22.55;3.80;;;;;;;5.12;85.76;101808.91;5062594;28;20446;-74
2022/01/18 10:39:34;;;;;;;;;;;;;;;5.23;85.25;101801.56;5044974;28;20021;-72
2022/01/18 10:42:12;;;;;;;21.05;2.85;;;;;;;5.28;84.83;101800.03;5062628;28;19909;-73
2022/01/18 10:44:37;;;;;;;18.42;2.50;;;;;;;5.25;84.73;101785.38;5044764;28;20047;-72
2022/01/18 10:47:02;;;;;;;19.90;2.85;;;;;;;5.34;84.97;101795.09;5044724;28;20029;-72
2022/01/18 10:49:31;;;;;;;16.67;3.28;;;;;;;5.36;85.04;101785.75;5065394;28;20047;-73
2022/01/18 10:52:10;;;;;;;15.02;1.88;;;;;;;5.30;84.94;101780.38;5065932;28;20104;-71
2022/01/18 10:54:47;;;;;;;22.35;3.05;;;;;;;5.40;84.81;101791.88;5066155;28;20055;-74
2022/01/18 10:57:21;;;;;;;43.72;6.20;;;;;;;5.41;84.88;101794.50;5065937;28;20025;-71
2022/01/18 10:59:47;;;;;;;14.48;2.25;;;;;;;5.36;84.75;101783.16;5065976;28;20035;-71
2022/01/18 11:02:19;;;;;;;14.45;2.70;;;;;;;5.49;84.71;101793.91;5066268;28;20100;-72
2022/01/18 11:04:55;;;;;;;15.23;1.95;;;;;;;5.41;84.36;101779.06;5047827;28;20024;-73
2022/01/18 11:07:24;;;;;;;17.85;2.88;;;;;;;5.38;84.50;101773.81;5065752;28;20041;-73
2022/01/18 11:09:50;;;;;;;11.50;2.22;;;;;;;5.50;84.30;101786.22;5065680;28;20029;-72
2022/01/18 11:12:16;;;;;;;15.45;2.60;;;;;;;5.54;84.08;101788.06;5065903;28;20080;-73
2022/01/18 11:14:49;;;;;;;15.93;3.28;;;;;;;5.55;84.07;101766.66;5065666;28;20032;-73
2022/01/18 11:17:23;;;;;;;21.85;3.92;;;;;;;5.55;84.24;101770.91;5065752;28;20028;-72
2022/01/18 11:19:51;;;;;;;14.68;3.55;;;;;;;5.46;84.29;101759.47;5047097;28;20021;-73
2022/01/18 11:22:17;;;;;;;18.08;3.00;;;;;;;5.55;84.22;101776.06;5065653;28;20021;-73
2022/01/18 11:24:44;;;;;;;25.00;3.97;;;;;;;5.63;84.07;101766.91;5065643;28;20032;-72
2022/01/18 11:27:14;;;;;;;21.67;3.28;;;;;;;5.70;83.98;101775.75;5065378;28;20067;-72
2022/01/18 11:29:42;;;;;;;17.65;3.22;;;;;;;5.71;83.98;101780.06;5065179;28;20069;-74
2022/01/18 11:32:09;;;;;;;13.52;2.95;;;;;;;5.71;83.86;101767.16;5047215;28;20032;-74
2022/01/18 11:34:56;;;;;;;21.45;3.13;;;;;;;5.73;83.70;101777.53;5064854;28;20052;-74
2022/01/18 11:37:41;;;;;;;19.42;3.22;;;;;;;5.78;83.22;101776.84;5065399;28;20076;-74
2022/01/18 11:40:11;;;;;;;17.63;2.45;;;;;;;5.64;83.36;101758.34;5065068;28;20480;-74
2022/01/18 11:42:50;;;;;;;13.63;3.72;;;;;;;5.73;83.14;101782.69;5065375;28;20056;-73
2022/01/18 11:45:24;;;;;;;18.83;4.60;;;;;;;5.62;83.36;101761.72;5065412;28;20044;-74
2022/01/18 11:48:13;;;;;;;18.05;3.03;;;;;;;5.70;83.31;101771.44;5064806;28;20048;-74
2022/01/18 11:51:05;;;;;;;13.57;3.53;;;;;;;5.68;83.30;101770.53;5064920;28;20289;-75
2022/01/18 11:53:42;;;;;;;17.30;2.72;;;;;;;5.67;83.19;101767.91;5054450;28;20037;-74
2022/01/18 11:56:12;;;;;;;12.48;3.08;;;;;;;5.59;83.31;101754.75;5065010;28;20084;-74
2022/01/18 11:58:39;;;;;;;16.35;4.45;;;;;;;5.67;83.45;101770.47;5064592;28;20021;-76
2022/01/18 12:01:04;;;;;;;11.60;2.85;;;;;;;5.70;83.40;101771.44;5046108;28;20021;-74
2022/01/18 12:03:43;;;;;;;14.73;3.00;;;;;;;5.64;83.35;101762.66;5064457;28;20025;-74
2022/01/18 12:06:10;;;;;;;11.85;2.38;;;;;;;5.68;83.10;101760.22;5064985;28;20021;-74
2022/01/18 12:08:38;;;;;;;19.75;3.97;;;;;;;5.72;83.06;101768.06;5064501;28;20033;-74
2022/01/18 12:11:05;;;;;;;21.67;4.22;;;;;;;5.69;83.36;101768.81;5064862;28;20050;-77
2022/01/18 12:13:37;;;;;;;16.90;3.50;;;;;;;5.75;83.30;101773.31;5064823;28;20099;-73
2022/01/18 12:16:10;;;;;;;39.67;5.07;;;;;;;5.77;83.04;101779.38;5064740;28;20020;-73
2022/01/18 12:18:49;;;;;;;18.35;3.33;;;;;;;5.81;82.84;101791.56;5064341;28;20025;-73
2022/01/18 12:21:20;;;;;;;22.58;3.33;;;;;;;5.80;82.86;101782.06;5046869;28;20036;-73
2022/01/18 12:23:46;;;;;;;21.15;3.53;;;;;;;5.78;82.87;101782.00;5046484;28;20025;-73
2022/01/18 12:26:34;;;;;;;23.52;3.38;;;;;;;5.77;82.88;101781.94;5064392;28;20054;-73
2022/01/18 12:29:35;;;;;;;20.95;4.10;;;;;;;5.74;82.94;101780.16;5046290;28;20017;-74
2022/01/18 12:34:32;;;;;;;14.13;4.35;;;;;;;5.75;82.65;101783.63;5063894;28;20076;-74
2022/01/18 12:39:51;;;;;;;20.63;3.58;;;;;;;5.70;83.04;101786.03;5064161;28;20028;-74
2022/01/18 12:45:05;;;;;;;27.38;3.97;;;;;;;5.69;83.30;101789.44;5064425;28;20033;-74
2022/01/18 12:47:30;;;;;;;19.23;3.13;;;;;;;5.68;83.33;101767.97;5064209;28;20078;-74
2022/01/18 12:49:56;;;;;;;26.55;5.10;;;;;;;5.60;83.23;101761.66;5063609;28;20362;-74